Time;durP1;ratioP1;P1;durP2;ratioP2;P2;SDS_P1;SDS_P2;PMS_P1;PMS_P2;Temp;Humidity;BMP_temperature;BMP_pressure;BME280_temperature;BME280_humidity;BME280_pressure;Samples;Min_cycle;Max_cycle;Signal;HPM_P1;HPM_P2
2023/12/30 00:02:12;;;;;;;;;;;20.10;49.30;;;;;;5083777;28;19931;-61
2023/12/30 00:04:39;;;;;;;;;;;20.10;49.30;;;;;;5089482;28;19920;-60
2023/12/30 00:07:06;;;;;;;;;;;20.10;49.30;;;;;;5075555;28;19920;-60
2023/12/30 00:09:34;;;;;;;;;;;20.10;49.30;;;;;;5092400;28;19928;-60
2023/12/30 00:12:00;;;;;;;;;;;20.10;49.30;;;;;;5089278;28;20290;-61
2023/12/30 00:14:27;;;;;;;;;;;20.10;49.30;;;;;;5092934;28;19924;-60
2023/12/30 00:16:54;;;;;;;;;;;20.10;49.20;;;;;;5082780;28;19919;-60
2023/12/30 00:19:21;;;;;;;;;;;20.10;49.30;;;;;;5086026;28;19927;-60
2023/12/30 00:21:48;;;;;;;;;;;20.10;49.20;;;;;;5109722;28;20264;-60
2023/12/30 00:24:14;;;;;;;;;;;20.10;49.20;;;;;;5100249;28;19924;-60
2023/12/30 00:26:43;;;;;;;;;;;20.10;49.20;;;;;;5092951;28;19924;-60
2023/12/30 00:29:09;;;;;;;;;;;20.10;49.80;;;;;;5080182;28;19927;-60
2023/12/30 00:31:36;;;;;;;;;;;20.10;49.20;;;;;;5081005;28;19942;-60
2023/12/30 00:34:03;;;;;;;;;;;20.00;49.10;;;;;;5077635;28;20299;-60
2023/12/30 00:36:30;;;;;;;;;;;20.10;49.20;;;;;;5095202;28;20387;-60
2023/12/30 00:38:57;;;;;;;;;;;20.00;49.10;;;;;;5079910;28;19920;-60
2023/12/30 00:41:24;;;;;;;;;;;20.00;49.10;;;;;;5100725;28;19921;-60
2023/12/30 00:43:52;;;;;;;;;;;20.10;49.20;;;;;;5086632;28;19924;-60
2023/12/30 00:46:19;;;;;;;;;;;20.10;49.10;;;;;;5084933;28;19976;-60
2023/12/30 00:48:45;;;;;;;;;;;20.10;49.10;;;;;;5079931;28;20010;-61
2023/12/30 00:51:12;;;;;;;;;;;20.00;49.00;;;;;;5080780;28;19986;-60
2023/12/30 00:53:39;;;;;;;;;;;20.00;49.10;;;;;;5096227;28;19920;-60
2023/12/30 00:56:06;;;;;;;;;;;20.00;49.00;;;;;;5083112;28;19924;-60
2023/12/30 00:58:33;;;;;;;;;;;20.00;49.00;;;;;;5081956;28;19969;-61
2023/12/30 01:01:01;;;;;;;;;;;20.00;49.00;;;;;;5106216;28;19927;-61
2023/12/30 01:03:28;;;;;;;;;;;20.10;49.10;;;;;;5091891;28;19920;-60
2023/12/30 01:05:54;;;;;;;;;;;20.10;49.10;;;;;;5094428;28;19928;-60
2023/12/30 01:08:21;;;;;;;;;;;20.00;49.00;;;;;;5074438;28;19928;-60
2023/12/30 01:10:48;;;;;;;;;;;20.00;49.00;;;;;;5095742;28;19919;-60
2023/12/30 01:13:15;;;;;;;;;;;20.00;49.00;;;;;;5079581;28;19920;-60
2023/12/30 01:15:41;;;;;;;;;;;20.00;49.00;;;;;;5106325;28;19927;-60
2023/12/30 01:18:09;;;;;;;;;;;20.00;49.00;;;;;;5103173;28;20241;-60
2023/12/30 01:20:36;;;;;;;;;;;20.10;49.00;;;;;;5084216;28;19932;-60
2023/12/30 01:23:03;;;;;;;;;;;20.00;49.00;;;;;;5100622;28;19974;-60
2023/12/30 01:25:30;;;;;;;;;;;20.00;49.50;;;;;;5101053;28;19927;-61
2023/12/30 01:27:56;;;;;;;;;;;20.00;49.00;;;;;;5084944;28;19943;-60
2023/12/30 01:30:23;;;;;;;;;;;20.00;49.00;;;;;;5081739;28;19967;-60
2023/12/30 01:32:50;;;;;;;;;;;20.00;48.90;;;;;;5084048;28;19955;-60
2023/12/30 01:35:18;;;;;;;;;;;20.10;49.00;;;;;;5082053;28;19920;-61
2023/12/30 01:37:45;;;;;;;;;;;20.00;49.00;;;;;;5084443;28;19920;-60
2023/12/30 01:40:12;;;;;;;;;;;20.00;48.90;;;;;;5104117;28;19931;-61
2023/12/30 01:42:40;;;;;;;;;;;20.00;48.90;;;;;;5075558;28;19997;-61
2023/12/30 01:45:07;;;;;;;;;;;20.00;48.90;;;;;;5093028;28;19973;-60
2023/12/30 01:47:34;;;;;;;;;;;20.00;48.90;;;;;;5102587;28;19927;-60
2023/12/30 01:50:01;;;;;;;;;;;20.00;48.90;;;;;;5079657;28;19920;-61
2023/12/30 01:52:29;;;;;;;;;;;20.00;48.90;;;;;;5119526;27;19921;-60
2023/12/30 01:54:55;;;;;;;;;;;20.00;48.90;;;;;;5101454;28;20009;-61
2023/12/30 01:57:22;;;;;;;;;;;20.00;48.90;;;;;;5095469;28;20079;-61
2023/12/30 01:59:49;;;;;;;;;;;20.00;48.90;;;;;;5101200;28;19949;-61
2023/12/30 02:02:16;;;;;;;;;;;20.00;48.90;;;;;;5093225;28;19991;-60
2023/12/30 02:04:43;;;;;;;;;;;20.00;48.90;;;;;;5092437;28;19927;-61
2023/12/30 02:07:09;;;;;;;;;;;20.00;49.40;;;;;;5093258;28;19920;-60
2023/12/30 02:09:38;;;;;;;;;;;20.00;48.80;;;;;;5094143;28;19924;-60
2023/12/30 02:12:05;;;;;;;;;;;20.00;48.90;;;;;;5102672;28;19950;-61
2023/12/30 02:14:32;;;;;;;;;;;20.00;48.80;;;;;;5089363;28;19928;-60
2023/12/30 02:16:59;;;;;;;;;;;20.00;48.80;;;;;;5092498;28;19920;-60
2023/12/30 02:19:26;;;;;;;;;;;20.00;48.80;;;;;;5101701;28;20380;-60
2023/12/30 02:21:53;;;;;;;;;;;20.00;48.80;;;;;;5105751;28;19931;-61
2023/12/30 02:24:21;;;;;;;;;;;20.00;48.80;;;;;;5105135;28;19931;-60
2023/12/30 02:26:48;;;;;;;;;;;20.00;48.80;;;;;;5098421;28;19973;-61
2023/12/30 02:29:14;;;;;;;;;;;20.00;48.80;;;;;;5090329;28;19924;-60
2023/12/30 02:31:46;;;;;;;;;;;20.00;48.70;;;;;;5091946;28;19920;-60
2023/12/30 02:34:14;;;;;;;;;;;20.00;48.80;;;;;;5124411;27;19920;-60
2023/12/30 02:36:40;;;;;;;;;;;20.00;48.80;;;;;;5094898;28;19952;-60
2023/12/30 02:39:07;;;;;;;;;;;20.00;48.70;;;;;;5106270;28;20083;-60
2023/12/30 02:41:35;;;;;;;;;;;20.00;48.70;;;;;;5109608;28;19919;-60
2023/12/30 02:44:02;;;;;;;;;;;20.00;48.70;;;;;;5098994;28;19973;-60
2023/12/30 02:46:29;;;;;;;;;;;20.00;48.70;;;;;;5104609;28;19989;-60
2023/12/30 02:48:56;;;;;;;;;;;20.00;48.70;;;;;;5093506;28;19929;-61
2023/12/30 02:51:23;;;;;;;;;;;20.00;48.70;;;;;;5093058;28;20206;-60
2023/12/30 02:53:50;;;;;;;;;;;20.00;48.70;;;;;;5091642;28;20044;-61
2023/12/30 02:56:20;;;;;;;;;;;20.00;48.70;;;;;;5070974;28;19997;-60
2023/12/30 02:58:49;;;;;;;;;;;20.00;48.70;;;;;;5079467;28;19976;-61
2023/12/30 03:01:15;;;;;;;;;;;20.00;48.70;;;;;;5087478;28;19927;-61
2023/12/30 03:03:42;;;;;;;;;;;20.00;48.70;;;;;;5089951;28;19923;-60
2023/12/30 03:06:09;;;;;;;;;;;20.00;48.70;;;;;;5084684;28;19919;-60
2023/12/30 03:08:36;;;;;;;;;;;20.00;48.70;;;;;;5085214;28;19931;-61
2023/12/30 03:11:03;;;;;;;;;;;20.00;48.60;;;;;;5107687;28;19973;-60
2023/12/30 03:13:30;;;;;;;;;;;20.00;48.60;;;;;;5078303;28;20031;-60
2023/12/30 03:15:58;;;;;;;;;;;20.00;48.60;;;;;;5099452;28;19936;-61
2023/12/30 03:18:24;;;;;;;;;;;20.00;48.60;;;;;;5082877;28;19924;-60
2023/12/30 03:20:51;;;;;;;;;;;20.00;48.60;;;;;;5072387;28;19943;-60
2023/12/30 03:23:18;;;;;;;;;;;20.00;48.60;;;;;;5092365;28;19928;-60
2023/12/30 03:25:45;;;;;;;;;;;20.00;48.60;;;;;;5092346;28;19961;-60
2023/12/30 03:28:11;;;;;;;;;;;20.00;48.50;;;;;;5085149;28;19920;-60
2023/12/30 03:30:38;;;;;;;;;;;20.00;48.50;;;;;;5086069;28;19958;-61
2023/12/30 03:33:06;;;;;;;;;;;20.00;48.50;;;;;;5081257;28;19924;-60
2023/12/30 03:35:33;;;;;;;;;;;20.00;48.50;;;;;;5078177;28;19921;-61
2023/12/30 03:38:00;;;;;;;;;;;20.00;48.50;;;;;;5074647;28;19924;-60
2023/12/30 03:40:27;;;;;;;;;;;20.00;48.50;;;;;;5101253;28;19928;-60
2023/12/30 03:42:53;;;;;;;;;;;20.00;48.50;;;;;;5092855;28;19965;-60
2023/12/30 03:45:20;;;;;;;;;;;20.00;48.50;;;;;;5073768;28;19920;-60
2023/12/30 03:47:47;;;;;;;;;;;20.00;48.50;;;;;;5111396;28;19919;-60
2023/12/30 03:50:15;;;;;;;;;;;19.90;48.40;;;;;;5079506;28;19920;-60
2023/12/30 03:52:42;;;;;;;;;;;20.00;48.40;;;;;;5090355;28;19935;-60
2023/12/30 03:55:09;;;;;;;;;;;20.00;48.50;;;;;;5083175;28;19923;-61
2023/12/30 03:57:35;;;;;;;;;;;20.00;48.40;;;;;;5094316;28;20357;-60
2023/12/30 04:00:02;;;;;;;;;;;19.90;48.30;;;;;;5089479;28;19920;-61
2023/12/30 04:02:29;;;;;;;;;;;20.00;48.40;;;;;;5066335;28;19959;-60
2023/12/30 04:04:56;;;;;;;;;;;19.90;48.30;;;;;;5071205;28;19924;-60
2023/12/30 04:07:24;;;;;;;;;;;20.00;48.40;;;;;;5100691;28;19924;-60
2023/12/30 04:09:51;;;;;;;;;;;19.90;48.30;;;;;;5070551;28;20531;-60
2023/12/30 04:12:18;;;;;;;;;;;20.00;48.40;;;;;;5067939;28;19920;-60
2023/12/30 04:14:45;;;;;;;;;;;20.00;48.40;;;;;;5082010;28;19942;-60
2023/12/30 04:17:12;;;;;;;;;;;19.90;48.30;;;;;;5091832;28;19977;-60
2023/12/30 04:19:38;;;;;;;;;;;20.00;48.40;;;;;;5081659;28;20136;-60
2023/12/30 04:22:05;;;;;;;;;;;20.00;48.30;;;;;;5080046;28;20392;-60
2023/12/30 04:24:33;;;;;;;;;;;20.00;48.30;;;;;;5074920;28;19928;-60
2023/12/30 04:27:00;;;;;;;;;;;19.90;48.30;;;;;;5098440;28;19931;-60
2023/12/30 04:29:28;;;;;;;;;;;20.00;48.40;;;;;;5076532;28;19981;-61
2023/12/30 04:31:55;;;;;;;;;;;20.00;48.30;;;;;;5069681;28;20442;-61
2023/12/30 04:34:22;;;;;;;;;;;20.00;48.30;;;;;;5073259;28;19924;-60
2023/12/30 04:36:49;;;;;;;;;;;19.90;48.30;;;;;;5078784;28;19984;-60
2023/12/30 04:39:16;;;;;;;;;;;20.00;48.30;;;;;;5078546;28;19924;-60
2023/12/30 04:41:44;;;;;;;;;;;19.90;48.30;;;;;;5104383;28;19932;-60
2023/12/30 04:44:10;;;;;;;;;;;20.00;48.30;;;;;;5093314;28;19944;-60
2023/12/30 04:46:37;;;;;;;;;;;19.90;48.30;;;;;;5092011;28;19969;-61
2023/12/30 04:49:04;;;;;;;;;;;20.00;48.30;;;;;;5097242;28;20322;-60
2023/12/30 04:51:30;;;;;;;;;;;20.00;48.30;;;;;;5082303;28;19969;-61
2023/12/30 04:53:57;;;;;;;;;;;19.90;48.20;;;;;;5075527;28;19977;-60
2023/12/30 04:56:24;;;;;;;;;;;19.90;48.20;;;;;;5081650;28;20010;-60
2023/12/30 04:58:52;;;;;;;;;;;19.90;48.20;;;;;;5079141;28;19936;-60
2023/12/30 05:01:19;;;;;;;;;;;20.00;48.30;;;;;;5081192;28;19977;-60
2023/12/30 05:03:46;;;;;;;;;;;19.90;48.30;;;;;;5081936;28;20422;-61
2023/12/30 05:06:21;;;;;;;;;;;20.00;48.30;;;;;;5091036;28;19931;-60
2023/12/30 05:08:48;;;;;;;;;;;19.90;48.20;;;;;;5094284;28;19948;-60
2023/12/30 05:11:15;;;;;;;;;;;19.90;48.20;;;;;;5095209;28;19927;-60
2023/12/30 05:13:42;;;;;;;;;;;19.90;48.20;;;;;;5100172;28;19924;-60
2023/12/30 05:16:10;;;;;;;;;;;20.00;48.30;;;;;;5111783;28;19923;-60
2023/12/30 05:18:37;;;;;;;;;;;19.90;48.20;;;;;;5077015;28;19928;-61
2023/12/30 05:21:04;;;;;;;;;;;19.90;48.20;;;;;;5099460;28;20537;-60
2023/12/30 05:23:32;;;;;;;;;;;20.00;48.30;;;;;;5082301;28;19927;-60
2023/12/30 05:25:59;;;;;;;;;;;20.00;48.30;;;;;;5107075;28;19939;-61
2023/12/30 05:28:26;;;;;;;;;;;20.00;48.30;;;;;;5085616;28;20296;-60
2023/12/30 05:30:52;;;;;;;;;;;20.00;48.30;;;;;;5095371;28;19928;-61
2023/12/30 05:33:20;;;;;;;;;;;19.90;48.20;;;;;;5084502;28;20010;-60
2023/12/30 05:35:47;;;;;;;;;;;20.00;48.30;;;;;;5087960;28;19920;-60
2023/12/30 05:38:14;;;;;;;;;;;20.00;48.30;;;;;;5079099;28;19932;-60
2023/12/30 05:40:41;;;;;;;;;;;20.00;48.30;;;;;;5076081;28;19924;-60
2023/12/30 05:43:07;;;;;;;;;;;19.90;48.10;;;;;;5095250;28;19977;-60
2023/12/30 05:45:35;;;;;;;;;;;20.00;48.30;;;;;;5082055;28;19919;-60
2023/12/30 05:48:02;;;;;;;;;;;20.00;48.20;;;;;;5091399;28;20292;-60
2023/12/30 05:50:30;;;;;;;;;;;20.00;48.20;;;;;;5077696;28;20285;-60
2023/12/30 05:52:57;;;;;;;;;;;19.90;48.10;;;;;;5106247;28;19923;-60
2023/12/30 05:55:23;;;;;;;;;;;20.00;48.20;;;;;;5098297;28;19928;-61
2023/12/30 05:57:50;;;;;;;;;;;19.90;48.10;;;;;;5075427;28;19969;-60
2023/12/30 06:00:19;;;;;;;;;;;20.00;48.20;;;;;;5075151;28;19924;-60
2023/12/30 06:02:45;;;;;;;;;;;20.00;48.20;;;;;;5076324;28;19926;-60
2023/12/30 06:05:12;;;;;;;;;;;19.90;48.70;;;;;;5096303;28;19923;-61
2023/12/30 06:07:40;;;;;;;;;;;19.90;48.10;;;;;;5077158;28;19924;-60
2023/12/30 06:10:08;;;;;;;;;;;20.00;48.20;;;;;;5108762;28;19927;-60
2023/12/30 06:12:34;;;;;;;;;;;19.90;48.10;;;;;;5087717;28;19924;-60
2023/12/30 06:15:01;;;;;;;;;;;20.00;48.20;;;;;;5114517;28;19962;-61
2023/12/30 06:17:28;;;;;;;;;;;19.90;48.10;;;;;;5096463;28;19964;-60
2023/12/30 06:19:54;;;;;;;;;;;19.90;48.10;;;;;;5087627;28;19948;-60
2023/12/30 06:22:21;;;;;;;;;;;19.90;48.10;;;;;;5085810;28;19976;-60
2023/12/30 06:24:49;;;;;;;;;;;20.00;48.10;;;;;;5074491;28;20319;-60
2023/12/30 06:27:16;;;;;;;;;;;20.00;48.10;;;;;;5101463;28;19927;-60
2023/12/30 06:29:42;;;;;;;;;;;19.90;48.60;;;;;;5076067;28;19928;-60
2023/12/30 06:32:09;;;;;;;;;;;19.90;48.00;;;;;;5100926;28;20273;-60
2023/12/30 06:34:36;;;;;;;;;;;19.90;48.00;;;;;;5084069;28;19924;-60
2023/12/30 06:37:03;;;;;;;;;;;19.90;48.00;;;;;;5071087;28;19993;-60
2023/12/30 06:39:29;;;;;;;;;;;20.00;48.10;;;;;;5074637;28;19931;-60
2023/12/30 06:41:59;;;;;;;;;;;19.90;48.00;;;;;;5072323;28;20023;-60
2023/12/30 06:44:25;;;;;;;;;;;20.00;48.10;;;;;;5084551;28;19970;-60
2023/12/30 06:46:52;;;;;;;;;;;19.90;48.00;;;;;;5101929;28;19959;-60
2023/12/30 06:49:19;;;;;;;;;;;19.90;48.00;;;;;;5089917;28;19934;-61
2023/12/30 06:51:46;;;;;;;;;;;19.90;48.00;;;;;;5084515;28;20001;-60
2023/12/30 06:54:13;;;;;;;;;;;19.90;48.00;;;;;;5099505;28;19920;-60
2023/12/30 06:56:39;;;;;;;;;;;20.00;48.10;;;;;;5094762;28;20346;-60
2023/12/30 06:59:07;;;;;;;;;;;19.90;48.00;;;;;;5104653;28;19919;-60
2023/12/30 07:01:39;;;;;;;;;;;19.90;48.00;;;;;;5095177;28;19920;-60
2023/12/30 07:04:05;;;;;;;;;;;19.90;48.00;;;;;;5099917;28;20023;-60
2023/12/30 07:06:32;;;;;;;;;;;19.90;48.00;;;;;;5103626;28;20242;-61
2023/12/30 07:08:59;;;;;;;;;;;19.90;48.00;;;;;;5109022;28;19928;-60
2023/12/30 07:11:25;;;;;;;;;;;19.90;48.00;;;;;;5109178;28;19919;-60
2023/12/30 07:13:52;;;;;;;;;;;19.90;48.00;;;;;;5097453;28;19924;-61
2023/12/30 07:16:20;;;;;;;;;;;20.00;48.10;;;;;;5107480;28;20055;-60
2023/12/30 07:18:47;;;;;;;;;;;19.90;48.00;;;;;;5097497;28;19924;-60
2023/12/30 07:21:14;;;;;;;;;;;19.90;48.00;;;;;;5097383;28;19924;-60
2023/12/30 07:23:40;;;;;;;;;;;19.90;47.90;;;;;;5100243;28;19920;-60
2023/12/30 07:26:07;;;;;;;;;;;19.90;48.00;;;;;;5094445;28;19921;-60
2023/12/30 07:28:34;;;;;;;;;;;19.90;47.90;;;;;;5094303;28;19927;-60
2023/12/30 07:31:00;;;;;;;;;;;19.90;48.00;;;;;;5092164;28;20439;-61
2023/12/30 07:33:28;;;;;;;;;;;19.90;48.00;;;;;;5094787;28;19919;-60
2023/12/30 07:35:56;;;;;;;;;;;19.90;48.00;;;;;;5096128;28;19919;-60
2023/12/30 07:38:23;;;;;;;;;;;19.90;48.00;;;;;;5091369;28;19920;-60
2023/12/30 07:40:49;;;;;;;;;;;19.90;48.00;;;;;;5091905;28;19925;-60
2023/12/30 07:43:16;;;;;;;;;;;19.90;48.00;;;;;;5093013;28;19920;-60
2023/12/30 07:45:44;;;;;;;;;;;20.00;48.10;;;;;;5090726;28;19931;-60
2023/12/30 07:48:10;;;;;;;;;;;20.00;48.20;;;;;;5088559;28;19952;-60
2023/12/30 07:50:38;;;;;;;;;;;20.00;48.10;;;;;;5090811;28;19920;-60
2023/12/30 07:53:05;;;;;;;;;;;20.00;48.10;;;;;;5088619;28;19920;-60
2023/12/30 07:55:32;;;;;;;;;;;20.00;48.10;;;;;;5090377;28;20001;-60
2023/12/30 07:57:59;;;;;;;;;;;20.00;48.10;;;;;;5090329;28;19924;-60
2023/12/30 08:00:25;;;;;;;;;;;19.90;48.10;;;;;;5090197;28;19924;-60
2023/12/30 08:02:52;;;;;;;;;;;19.90;48.10;;;;;;5088786;28;19920;-60
2023/12/30 08:05:19;;;;;;;;;;;20.00;48.20;;;;;;5094073;28;20289;-60
2023/12/30 08:07:47;;;;;;;;;;;20.00;48.20;;;;;;5092896;28;19965;-60
2023/12/30 08:10:14;;;;;;;;;;;20.00;48.20;;;;;;5091291;28;19920;-60
2023/12/30 08:12:40;;;;;;;;;;;20.00;48.20;;;;;;5089135;28;19935;-60
2023/12/30 08:15:09;;;;;;;;;;;20.00;48.20;;;;;;5118255;27;19939;-60
2023/12/30 08:17:36;;;;;;;;;;;20.00;48.20;;;;;;5068243;28;19920;-60
2023/12/30 08:20:02;;;;;;;;;;;19.90;48.10;;;;;;5088795;28;20317;-60
2023/12/30 08:22:29;;;;;;;;;;;19.90;48.10;;;;;;5087785;28;19935;-60
2023/12/30 08:24:58;;;;;;;;;;;20.00;48.20;;;;;;5087987;28;20063;-60
2023/12/30 08:27:25;;;;;;;;;;;20.00;48.20;;;;;;5092010;28;19920;-60
2023/12/30 08:29:50;;;;;;;;;;;20.00;48.20;;;;;;5092820;28;19984;-60
2023/12/30 08:32:17;;;;;;;;;;;20.00;48.20;;;;;;5088284;28;19928;-60
2023/12/30 08:34:44;;;;;;;;;;;19.90;48.10;;;;;;5090064;28;19932;-60
2023/12/30 08:37:10;;;;;;;;;;;20.00;48.20;;;;;;5089912;28;19920;-61
2023/12/30 08:39:38;;;;;;;;;;;19.90;48.10;;;;;;5091186;28;20422;-60
2023/12/30 08:42:06;;;;;;;;;;;20.00;48.20;;;;;;5089103;28;19962;-60
2023/12/30 08:44:37;;;;;;;;;;;19.90;48.00;;;;;;5090836;28;19920;-60
2023/12/30 08:47:04;;;;;;;;;;;20.00;48.20;;;;;;5088783;28;19924;-60
2023/12/30 08:49:31;;;;;;;;;;;20.00;48.20;;;;;;5092420;28;19920;-60
2023/12/30 08:51:58;;;;;;;;;;;19.90;48.10;;;;;;5093620;28;19946;-60
2023/12/30 08:54:25;;;;;;;;;;;19.90;48.10;;;;;;5097744;28;19924;-60
2023/12/30 08:56:53;;;;;;;;;;;20.00;48.20;;;;;;5110513;28;20276;-60
2023/12/30 08:59:22;;;;;;;;;;;19.90;48.10;;;;;;5104346;28;19924;-60
2023/12/30 09:01:49;;;;;;;;;;;20.00;48.20;;;;;;5095019;28;19967;-60
2023/12/30 09:04:16;;;;;;;;;;;20.00;48.10;;;;;;5109860;28;19924;-60
2023/12/30 09:06:42;;;;;;;;;;;20.00;48.10;;;;;;5101719;28;20341;-60
2023/12/30 09:09:09;;;;;;;;;;;20.00;48.20;;;;;;5096526;28;20022;-60
2023/12/30 09:11:37;;;;;;;;;;;19.90;48.10;;;;;;5095188;28;19930;-60
2023/12/30 09:14:04;;;;;;;;;;;19.90;48.10;;;;;;5110392;28;19924;-60
2023/12/30 09:16:33;;;;;;;;;;;20.00;48.10;;;;;;5110298;28;19927;-60
2023/12/30 09:18:59;;;;;;;;;;;19.90;48.10;;;;;;5097041;28;19966;-60
2023/12/30 09:21:26;;;;;;;;;;;20.00;48.20;;;;;;5090641;28;19927;-61
2023/12/30 09:23:53;;;;;;;;;;;20.00;48.20;;;;;;5095594;28;19927;-60
2023/12/30 09:26:20;;;;;;;;;;;19.90;48.10;;;;;;5083665;28;19920;-60
2023/12/30 09:28:46;;;;;;;;;;;19.90;48.10;;;;;;5090972;28;19924;-60
2023/12/30 09:31:13;;;;;;;;;;;19.90;48.10;;;;;;5089430;28;19924;-60
2023/12/30 09:33:41;;;;;;;;;;;20.00;48.20;;;;;;5094561;28;19920;-60
2023/12/30 09:36:09;;;;;;;;;;;20.00;48.20;;;;;;5089210;28;19920;-60
2023/12/30 09:38:36;;;;;;;;;;;20.00;48.20;;;;;;5088700;28;20040;-60
2023/12/30 09:41:03;;;;;;;;;;;20.00;48.80;;;;;;5097437;28;19947;-61
2023/12/30 09:43:29;;;;;;;;;;;19.90;48.10;;;;;;5089059;28;19928;-60
2023/12/30 09:45:56;;;;;;;;;;;19.90;48.10;;;;;;5095374;28;19972;-60
2023/12/30 09:48:25;;;;;;;;;;;20.00;48.20;;;;;;5094321;28;19920;-60
2023/12/30 09:50:53;;;;;;;;;;;20.00;48.20;;;;;;5102278;28;19923;-60
2023/12/30 09:53:22;;;;;;;;;;;20.00;48.20;;;;;;5096251;28;19920;-60
2023/12/30 09:55:48;;;;;;;;;;;19.90;48.10;;;;;;5107545;28;20006;-60
2023/12/30 09:58:15;;;;;;;;;;;20.00;48.20;;;;;;5088042;28;19959;-60
2023/12/30 10:00:42;;;;;;;;;;;20.00;48.20;;;;;;5078082;28;19972;-60
2023/12/30 10:03:09;;;;;;;;;;;20.00;48.20;;;;;;5072477;28;19981;-60
2023/12/30 10:05:35;;;;;;;;;;;20.00;48.20;;;;;;5072457;28;19955;-60
2023/12/30 10:08:04;;;;;;;;;;;20.00;48.20;;;;;;5074777;28;19931;-61
2023/12/30 10:10:40;;;;;;;;;;;20.00;48.20;;;;;;5072478;28;19955;-60
2023/12/30 10:13:07;;;;;;;;;;;20.00;48.10;;;;;;5091268;28;19985;-60
2023/12/30 10:15:34;;;;;;;;;;;20.00;48.20;;;;;;5077410;28;19920;-60
2023/12/30 10:18:00;;;;;;;;;;;20.00;48.20;;;;;;5076593;28;19924;-60
2023/12/30 10:20:27;;;;;;;;;;;20.00;48.20;;;;;;5094619;28;19920;-60
2023/12/30 10:22:54;;;;;;;;;;;20.00;48.20;;;;;;5060660;28;19981;-60
2023/12/30 10:25:22;;;;;;;;;;;20.00;48.20;;;;;;5077675;28;19974;-60
2023/12/30 10:27:49;;;;;;;;;;;20.00;48.20;;;;;;5077065;28;19924;-60
2023/12/30 10:30:16;;;;;;;;;;;20.00;48.20;;;;;;5094246;28;19920;-60
2023/12/30 10:32:43;;;;;;;;;;;20.00;48.70;;;;;;5077313;28;19924;-60
2023/12/30 10:35:10;;;;;;;;;;;20.00;48.10;;;;;;5074232;28;19927;-60
2023/12/30 10:37:36;;;;;;;;;;;20.00;48.10;;;;;;5093249;28;19938;-60
2023/12/30 10:40:03;;;;;;;;;;;20.00;48.20;;;;;;5078647;28;19931;-60
2023/12/30 10:42:31;;;;;;;;;;;20.00;48.10;;;;;;5095539;28;20404;-60
2023/12/30 10:44:58;;;;;;;;;;;20.00;48.10;;;;;;5079584;28;19974;-60
2023/12/30 10:47:25;;;;;;;;;;;20.00;48.10;;;;;;5074883;28;19920;-60
2023/12/30 10:49:52;;;;;;;;;;;20.00;48.00;;;;;;5073519;28;19973;-60
2023/12/30 10:52:21;;;;;;;;;;;20.00;48.00;;;;;;5092760;28;19977;-60
2023/12/30 10:54:48;;;;;;;;;;;20.00;48.00;;;;;;5078871;28;19982;-60
2023/12/30 10:57:15;;;;;;;;;;;19.90;47.90;;;;;;5084795;28;19955;-60
2023/12/30 10:59:43;;;;;;;;;;;19.90;47.80;;;;;;5085581;28;19939;-60
2023/12/30 11:02:10;;;;;;;;;;;20.00;47.90;;;;;;5074156;28;19920;-60
2023/12/30 11:04:37;;;;;;;;;;;20.00;47.90;;;;;;5077066;28;20265;-60
2023/12/30 11:07:05;;;;;;;;;;;20.00;47.90;;;;;;5061957;28;19928;-60
2023/12/30 11:09:33;;;;;;;;;;;20.00;47.90;;;;;;5083364;28;19926;-60
2023/12/30 11:12:00;;;;;;;;;;;20.00;47.90;;;;;;5106461;28;19955;-59
2023/12/30 11:14:27;;;;;;;;;;;20.00;47.90;;;;;;5083201;28;20311;-60
2023/12/30 11:16:57;;;;;;;;;;;20.00;47.90;;;;;;5093598;28;19931;-61
2023/12/30 11:19:27;;;;;;;;;;;20.00;47.80;;;;;;5104866;28;19978;-59
2023/12/30 11:21:54;;;;;;;;;;;19.90;47.80;;;;;;5098445;28;19923;-60
2023/12/30 11:24:22;;;;;;;;;;;20.00;47.90;;;;;;5098786;28;19964;-60
2023/12/30 11:26:49;;;;;;;;;;;20.00;48.40;;;;;;5108130;28;19932;-60
2023/12/30 11:29:17;;;;;;;;;;;20.00;47.90;;;;;;5074561;28;19927;-60
2023/12/30 11:31:44;;;;;;;;;;;20.00;47.90;;;;;;5093260;28;19955;-60
2023/12/30 11:34:14;;;;;;;;;;;20.00;47.80;;;;;;5058764;28;19932;-60
2023/12/30 11:36:41;;;;;;;;;;;20.00;47.80;;;;;;5072583;28;19920;-60
2023/12/30 11:39:08;;;;;;;;;;;20.00;47.80;;;;;;5077595;28;19954;-60
2023/12/30 11:41:35;;;;;;;;;;;20.00;47.80;;;;;;5077644;28;20214;-60
2023/12/30 11:44:02;;;;;;;;;;;20.00;47.80;;;;;;5083284;28;19920;-60
2023/12/30 11:46:29;;;;;;;;;;;20.00;47.80;;;;;;5111670;28;19920;-60
2023/12/30 11:48:56;;;;;;;;;;;20.00;47.80;;;;;;5073081;28;19924;-60
2023/12/30 11:51:24;;;;;;;;;;;20.00;47.80;;;;;;5091285;28;19927;-60
2023/12/30 11:53:51;;;;;;;;;;;20.00;47.80;;;;;;5079401;28;19920;-60
2023/12/30 11:56:19;;;;;;;;;;;20.00;47.80;;;;;;5089636;28;20007;-60
2023/12/30 11:58:46;;;;;;;;;;;20.00;47.70;;;;;;5095407;28;19931;-60
2023/12/30 12:01:13;;;;;;;;;;;20.00;47.80;;;;;;5097817;28;20353;-60
2023/12/30 12:03:39;;;;;;;;;;;20.00;47.70;;;;;;5109505;28;19920;-60
2023/12/30 12:06:06;;;;;;;;;;;20.00;47.70;;;;;;5092019;28;19924;-60
2023/12/30 12:08:34;;;;;;;;;;;20.00;47.70;;;;;;5108319;28;20277;-60
2023/12/30 12:11:01;;;;;;;;;;;20.00;47.70;;;;;;5102508;28;19988;-60
2023/12/30 12:13:28;;;;;;;;;;;20.00;47.70;;;;;;5090294;28;19920;-60
2023/12/30 12:15:55;;;;;;;;;;;20.00;47.70;;;;;;5095618;28;19924;-60
2023/12/30 12:18:22;;;;;;;;;;;20.00;48.10;;;;;;5101742;28;19999;-60
2023/12/30 12:20:49;;;;;;;;;;;20.00;47.70;;;;;;5097302;28;19993;-60
2023/12/30 12:23:16;;;;;;;;;;;20.00;47.70;;;;;;5093997;28;19939;-60
2023/12/30 12:25:44;;;;;;;;;;;20.00;47.80;;;;;;5095625;28;19947;-60
2023/12/30 12:28:11;;;;;;;;;;;20.00;47.80;;;;;;5094616;28;20001;-60
2023/12/30 12:30:38;;;;;;;;;;;20.00;48.40;;;;;;5091346;28;20349;-59
2023/12/30 12:33:05;;;;;;;;;;;20.00;47.80;;;;;;5087423;28;19928;-59
2023/12/30 12:35:32;;;;;;;;;;;20.00;47.80;;;;;;5092627;28;19946;-62
2023/12/30 12:37:59;;;;;;;;;;;20.00;47.80;;;;;;5080879;28;20322;-61
2023/12/30 12:40:25;;;;;;;;;;;20.00;42.60;;;;;;5102397;28;19928;-61
2023/12/30 12:42:54;;;;;;;;;;;19.90;40.50;;;;;;5098499;28;19919;-64
2023/12/30 12:45:21;;;;;;;;;;;19.80;39.20;;;;;;5103935;28;19920;-63
2023/12/30 12:47:48;;;;;;;;;;;19.60;38.30;;;;;;5093403;28;19927;-63
2023/12/30 12:50:15;;;;;;;;;;;19.40;38.10;;;;;;5087895;28;20423;-58
2023/12/30 12:52:41;;;;;;;;;;;19.30;37.90;;;;;;5092231;28;19928;-58
2023/12/30 12:55:08;;;;;;;;;;;19.10;37.70;;;;;;5077561;28;19940;-57
2023/12/30 12:57:37;;;;;;;;;;;19.00;37.90;;;;;;5103989;28;20227;-57
2023/12/30 13:00:08;;;;;;;;;;;18.80;38.00;;;;;;5104088;28;19981;-57
2023/12/30 13:02:35;;;;;;;;;;;18.70;38.10;;;;;;5075078;28;20111;-57
2023/12/30 13:05:02;;;;;;;;;;;18.60;38.30;;;;;;5075185;28;19927;-58
2023/12/30 13:07:29;;;;;;;;;;;18.50;38.10;;;;;;5089267;28;19931;-57
2023/12/30 13:09:59;;;;;;;;;;;18.40;38.00;;;;;;5075470;28;19928;-57
2023/12/30 13:12:26;;;;;;;;;;;18.40;38.10;;;;;;5083608;28;19923;-55
2023/12/30 13:14:55;;;;;;;;;;;18.30;37.90;;;;;;5069251;28;19932;-57
2023/12/30 13:17:23;;;;;;;;;;;18.20;38.10;;;;;;5079316;28;19920;-58
2023/12/30 13:19:50;;;;;;;;;;;18.10;38.10;;;;;;5062724;28;19982;-58
2023/12/30 13:22:17;;;;;;;;;;;18.10;38.30;;;;;;5074376;28;19928;-57
2023/12/30 13:24:44;;;;;;;;;;;18.00;38.20;;;;;;5078838;28;20037;-57
2023/12/30 13:27:11;;;;;;;;;;;17.90;38.20;;;;;;5075986;28;19970;-60
2023/12/30 13:29:38;;;;;;;;;;;17.90;38.30;;;;;;5089371;28;19920;-57
2023/12/30 13:32:05;;;;;;;;;;;17.80;38.00;;;;;;5069471;28;19928;-57
2023/12/30 13:34:34;;;;;;;;;;;17.80;38.10;;;;;;5082401;28;19920;-57
2023/12/30 13:37:05;;;;;;;;;;;17.70;38.00;;;;;;5093353;28;19951;-56
2023/12/30 13:39:33;;;;;;;;;;;17.70;38.00;;;;;;5081187;28;19967;-58
2023/12/30 13:42:03;;;;;;;;;;;17.60;37.80;;;;;;5076636;28;19998;-56
2023/12/30 13:44:35;;;;;;;;;;;17.50;37.70;;;;;;5081529;28;20010;-57
2023/12/30 13:47:32;;;;;;;;;;;17.50;38.00;;;;;;5065288;28;19952;-56
2023/12/30 13:50:08;;;;;;;;;;;17.40;37.80;;;;;;5074290;28;19920;-57
2023/12/30 13:52:36;;;;;;;;;;;17.40;37.80;;;;;;5093739;28;19940;-57
2023/12/30 13:55:05;;;;;;;;;;;17.30;38.00;;;;;;5107656;28;19934;-57
2023/12/30 13:57:32;;;;;;;;;;;17.20;37.90;;;;;;5079133;28;19927;-57
2023/12/30 13:59:59;;;;;;;;;;;17.20;38.60;;;;;;5092174;28;19920;-58
2023/12/30 14:02:27;;;;;;;;;;;17.20;39.10;;;;;;5093690;28;19930;-57
2023/12/30 14:04:57;;;;;;;;;;;17.20;39.50;;;;;;5096230;28;19927;-57
2023/12/30 14:07:27;;;;;;;;;;;17.30;40.00;;;;;;5070469;28;20030;-54
2023/12/30 14:09:56;;;;;;;;;;;17.40;40.60;;;;;;5071350;28;19920;-51
2023/12/30 14:12:23;;;;;;;;;;;17.40;40.60;;;;;;5092112;28;20038;-49
2023/12/30 14:14:54;;;;;;;;;;;17.50;40.80;;;;;;5085586;28;19966;-51
2023/12/30 14:17:21;;;;;;;;;;;17.60;41.00;;;;;;5060944;28;19932;-50